Time;durP1;ratioP1;P1;durP2;ratioP2;P2;SDS_P1;SDS_P2;PMS_P1;PMS_P2;Temp;Humidity;BMP_temperature;BMP_pressure;BME280_temperature;BME280_humidity;BME280_pressure;Samples;Min_cycle;Max_cycle;Signal;HPM_P1;HPM_P2
2021/12/05 00:16:52;;;;;;;;;;;;;;;;;;2211373;59;22416;-71
2021/12/05 00:18:46;;;;;;;;;;;;;;;;;;2212422;67;28391;-71
2021/12/05 00:24:21;;;;;;;;;;;;;;;;;;2212950;59;31982;-71
2021/12/05 00:26:59;;;;;;;;;;;;;;;;;;2213379;59;18104;-71
2021/12/05 00:29:38;;;;;;;;;;;;;;;;;;2211242;59;22039;-71
2021/12/05 00:32:18;;;;;;;;;;;;;;;;;;2212509;63;26340;-70
2021/12/05 00:35:27;;;;;;;;;;;;;;;;;;2211333;67;19516;-71
2021/12/05 00:38:37;;;;;;;;;;;;;;;;;;2211767;59;23730;-71
2021/12/05 00:41:27;;;;;;;;;;;;;;;;;;2212294;63;22154;-71
2021/12/05 00:55:35;;;;;;;;;;;;;;;;;;2210878;66;16142;-71
2021/12/05 01:04:15;;;;;;;;;;;;;;;;;;2211578;63;15280;-71
2021/12/05 01:09:49;;;;;;;;;;;;;;;;;;2209375;59;22085;-71
2021/12/05 01:15:09;;;;;;;;;;;;;;;;;;2211833;63;14155;-71
2021/12/05 01:17:54;;;;;;;;;;;;;;;;;;2212301;59;18721;-71
2021/12/05 01:20:28;;;;;;;;;;;;;;;;;;2212669;59;26407;-71
2021/12/05 01:23:06;;;;;;;;;;;;;;;;;;2212999;59;21328;-71
2021/12/05 01:25:47;;;;;;;;;;;;;;;;;;2212656;59;14897;-71
2021/12/05 01:28:31;;;;;;;;;;;;;;;;;;2213797;59;20306;-71
2021/12/05 01:31:14;;;;;;;;;;;;;;;;;;2211737;59;21582;-71
2021/12/05 01:33:56;;;;;;;;;;;;;;;;;;2214163;59;30668;-71
2021/12/05 01:36:35;;;;;;;;;;;;;;;;;;2213975;58;16394;-71
2021/12/05 01:39:24;;;;;;;;;;;;;;;;;;2211718;59;28783;-71
2021/12/05 01:54:19;;;;;;;;;;;;;;;;;;2209453;59;26556;-71
2021/12/05 01:57:19;;;;;;;;;;;;;;;;;;2211525;59;22533;-71
2021/12/05 02:00:23;;;;;;;;;;;;;;;;;;2211757;59;41034;-71
2021/12/05 02:09:01;;;;;;;;;;;;;;;;;;2211920;63;25944;-71
2021/12/05 02:12:08;;;;;;;;;;;;;;;;;;2212231;59;17059;-71
2021/12/05 02:31:59;;;;;;;;;;;;;;;;;;2211750;59;26579;-71
2021/12/05 02:34:44;;;;;;;;;;;;;;;;;;2213149;59;20885;-71
2021/12/05 02:37:50;;;;;;;;;;;;;;;;;;2210614;59;38147;-71
2021/12/05 02:40:28;;;;;;;;;;;;;;;;;;2214633;66;14026;-71
2021/12/05 02:43:06;;;;;;;;;;;;;;;;;;2213477;66;31109;-71
2021/12/05 02:45:41;;;;;;;;;;;;;;;;;;2213116;53;20834;-72
2021/12/05 02:48:14;;;;;;;;;;;;;;;;;;2196729;59;12550;-72
2021/12/05 02:50:47;;;;;;;;;;;;;;;;;;2198093;67;15912;-72
2021/12/05 02:53:32;;;;;;;;;;;;;;;;;;2199016;59;24136;-72
2021/12/05 02:56:06;;;;;;;;;;;;;;;;;;2212020;58;17826;-72
2021/12/05 02:58:44;;;;;;;;;;;;;;;;;;2204428;59;30229;-72
2021/12/05 03:01:23;;;;;;;;;;;;;;;;;;2206123;59;20873;-72
2021/12/05 03:03:56;;;;;;;;;;;;;;;;;;2206440;59;15654;-72
2021/12/05 03:06:32;;;;;;;;;;;;;;;;;;2206478;64;21022;-72
2021/12/05 03:09:12;;;;;;;;;;;;;;;;;;2209836;63;15135;-72
2021/12/05 03:11:46;;;;;;;;;;;;;;;;;;2206625;58;17375;-72
2021/12/05 03:14:19;;;;;;;;;;;;;;;;;;2207678;59;15210;-72
2021/12/05 03:16:53;;;;;;;;;;;;;;;;;;2207367;59;16889;-72
2021/12/05 03:19:26;;;;;;;;;;;;;;;;;;2209522;58;18708;-71
2021/12/05 03:21:59;;;;;;;;;;;;;;;;;;2207283;64;20200;-72
2021/12/05 03:24:36;;;;;;;;;;;;;;;;;;2214619;58;15996;-72
2021/12/05 03:27:09;;;;;;;;;;;;;;;;;;2204774;64;20162;-71
2021/12/05 03:29:42;;;;;;;;;;;;;;;;;;2208729;64;30734;-72
2021/12/05 03:32:16;;;;;;;;;;;;;;;;;;2207784;66;20999;-72
2021/12/05 03:34:49;;;;;;;;;;;;;;;;;;2208950;66;18634;-71
2021/12/05 03:37:22;;;;;;;;;;;;;;;;;;2210024;64;21793;-71
2021/12/05 03:39:58;;;;;;;;;;;;;;;;;;2207787;59;16957;-71
2021/12/05 03:42:31;;;;;;;;;;;;;;;;;;2210946;66;17295;-72
2021/12/05 03:45:06;;;;;;;;;;;;;;;;;;2205943;59;25547;-72
2021/12/05 03:47:40;;;;;;;;;;;;;;;;;;2205615;59;14842;-72
2021/12/05 03:50:15;;;;;;;;;;;;;;;;;;2203920;58;23624;-72
2021/12/05 03:52:48;;;;;;;;;;;;;;;;;;2205716;63;20860;-72
2021/12/05 03:55:25;;;;;;;;;;;;;;;;;;2212558;58;19497;-72
2021/12/05 03:57:58;;;;;;;;;;;;;;;;;;2206586;58;16752;-72
2021/12/05 04:00:35;;;;;;;;;;;;;;;;;;2205402;66;23090;-72
2021/12/05 04:03:09;;;;;;;;;;;;;;;;;;2211755;59;29503;-72
2021/12/05 04:05:43;;;;;;;;;;;;;;;;;;2206985;59;16610;-72
2021/12/05 04:08:17;;;;;;;;;;;;;;;;;;2211067;64;21259;-72
2021/12/05 04:10:54;;;;;;;;;;;;;;;;;;2208485;66;18644;-72
2021/12/05 04:13:27;;;;;;;;;;;;;;;;;;2208883;59;20468;-72
2021/12/05 04:16:03;;;;;;;;;;;;;;;;;;2207508;66;17320;-72
2021/12/05 04:18:37;;;;;;;;;;;;;;;;;;2208007;66;21651;-72
2021/12/05 04:21:10;;;;;;;;;;;;;;;;;;2210500;59;19153;-72
2021/12/05 04:23:43;;;;;;;;;;;;;;;;;;2208849;59;16217;-72
2021/12/05 04:26:19;;;;;;;;;;;;;;;;;;2209334;66;15281;-72
2021/12/05 04:28:53;;;;;;;;;;;;;;;;;;2214724;66;22343;-72
2021/12/05 04:31:26;;;;;;;;;;;;;;;;;;2210259;59;19669;-72
2021/12/05 04:33:59;;;;;;;;;;;;;;;;;;2214598;59;26667;-72
2021/12/05 04:36:32;;;;;;;;;;;;;;;;;;2215535;59;19427;-72
2021/12/05 04:39:06;;;;;;;;;;;;;;;;;;2210479;59;22512;-71
2021/12/05 04:41:44;;;;;;;;;;;;;;;;;;2209831;66;14414;-71
2021/12/05 04:44:18;;;;;;;;;;;;;;;;;;2214884;65;27226;-72
2021/12/05 04:46:51;;;;;;;;;;;;;;;;;;2208162;58;17535;-72
2021/12/05 04:49:24;;;;;;;;;;;;;;;;;;2202808;59;27669;-72
2021/12/05 04:51:58;;;;;;;;;;;;;;;;;;2203085;59;23451;-71
2021/12/05 04:54:31;;;;;;;;;;;;;;;;;;2211445;59;19920;-72
2021/12/05 04:57:07;;;;;;;;;;;;;;;;;;2207338;59;15023;-72
2021/12/05 04:59:46;;;;;;;;;;;;;;;;;;2215812;66;27191;-72
2021/12/05 05:02:19;;;;;;;;;;;;;;;;;;2205604;59;19431;-72
2021/12/05 05:04:53;;;;;;;;;;;;;;;;;;2213703;66;18162;-72
2021/12/05 05:07:27;;;;;;;;;;;;;;;;;;2209504;59;23934;-72
2021/12/05 05:10:02;;;;;;;;;;;;;;;;;;2213644;63;15905;-72
2021/12/05 05:12:37;;;;;;;;;;;;;;;;;;2208792;59;30425;-72
2021/12/05 05:15:12;;;;;;;;;;;;;;;;;;2212119;64;17320;-72
2021/12/05 05:17:45;;;;;;;;;;;;;;;;;;2211153;58;17308;-72
2021/12/05 05:20:24;;;;;;;;;;;;;;;;;;2205111;63;20849;-72
2021/12/05 05:23:20;;;;;;;;;;;;;;;;;;2202421;59;25056;-72
2021/12/05 05:29:08;;;;;;;;;;;;;;;;;;2203195;66;17180;-72
2021/12/05 05:40:42;;;;;;;;;;;;;;;;;;2206664;66;17170;-72
2021/12/05 05:43:32;;;;;;;;;;;;;;;;;;2205311;58;18181;-72
2021/12/05 05:46:17;;;;;;;;;;;;;;;;;;2206098;58;17141;-72
2021/12/05 05:48:57;;;;;;;;;;;;;;;;;;2205617;59;21117;-72
2021/12/05 05:51:30;;;;;;;;;;;;;;;;;;2203073;59;16052;-72
2021/12/05 05:54:03;;;;;;;;;;;;;;;;;;2208475;59;22719;-72
2021/12/05 05:56:37;;;;;;;;;;;;;;;;;;2208710;63;16610;-72
2021/12/05 05:59:16;;;;;;;;;;;;;;;;;;2204800;58;19787;-72
2021/12/05 06:03:20;;;;;;;;;;;;;;;;;;2205761;59;20631;-72
2021/12/05 06:04:58;;;;;;;;;;;;;;;;;;2210964;63;15227;-72
2021/12/05 06:07:33;;;;;;;;;;;;;;;;;;2204515;64;15650;-72
2021/12/05 06:10:06;;;;;;;;;;;;;;;;;;2204558;66;28999;-72
2021/12/05 06:12:40;;;;;;;;;;;;;;;;;;2205053;59;17219;-72
2021/12/05 06:15:14;;;;;;;;;;;;;;;;;;2206728;63;32319;-72
2021/12/05 06:17:50;;;;;;;;;;;;;;;;;;2204226;62;14576;-72
2021/12/05 06:20:25;;;;;;;;;;;;;;;;;;2206731;59;14812;-72
2021/12/05 06:22:59;;;;;;;;;;;;;;;;;;2205818;59;23800;-72
2021/12/05 06:25:34;;;;;;;;;;;;;;;;;;2205248;64;17797;-72
2021/12/05 06:28:11;;;;;;;;;;;;;;;;;;2204740;59;14643;-72
2021/12/05 06:30:55;;;;;;;;;;;;;;;;;;2204123;58;29028;-72
2021/12/05 06:39:29;;;;;;;;;;;;;;;;;;2203420;64;23878;-72
2021/12/05 06:47:37;;;;;;;;;;;;;;;;;;2202880;59;21123;-73
2021/12/05 06:50:13;;;;;;;;;;;;;;;;;;2206495;66;24463;-72
2021/12/05 06:52:47;;;;;;;;;;;;;;;;;;2203996;58;29366;-72
2021/12/05 06:55:20;;;;;;;;;;;;;;;;;;2207017;58;15165;-72
2021/12/05 06:57:53;;;;;;;;;;;;;;;;;;2203347;58;22227;-72
2021/12/05 07:00:28;;;;;;;;;;;;;;;;;;2206722;59;19551;-72
2021/12/05 07:03:02;;;;;;;;;;;;;;;;;;2204403;59;16866;-72
2021/12/05 07:05:51;;;;;;;;;;;;;;;;;;2208591;66;15501;-72
2021/12/05 07:08:27;;;;;;;;;;;;;;;;;;2204970;66;19627;-70
2021/12/05 07:11:05;;;;;;;;;;;;;;;;;;2202328;63;25964;-70
2021/12/05 07:16:35;;;;;;;;;;;;;;;;;;2204863;66;13182;-72
2021/12/05 07:21:59;;;;;;;;;;;;;;;;;;2202005;66;23489;-72
2021/12/05 07:24:41;;;;;;;;;;;;;;;;;;2206096;59;15668;-72
2021/12/05 07:41:45;;;;;;;;;;;;;;;;;;2206595;66;24992;-72
2021/12/05 07:44:19;;;;;;;;;;;;;;;;;;2206053;59;13479;-72
2021/12/05 07:46:52;;;;;;;;;;;;;;;;;;2204851;58;22605;-72
2021/12/05 07:49:25;;;;;;;;;;;;;;;;;;2204029;66;18636;-72
2021/12/05 07:51:59;;;;;;;;;;;;;;;;;;2200162;58;16177;-72
2021/12/05 07:54:41;;;;;;;;;;;;;;;;;;2203530;59;21100;-72
2021/12/05 07:57:18;;;;;;;;;;;;;;;;;;2206042;59;24382;-72
2021/12/05 08:00:05;;;;;;;;;;;;;;;;;;2207751;58;18887;-72
2021/12/05 08:16:48;;;;;;;;;;;;;;;;;;2207416;58;16286;-72
2021/12/05 08:19:21;;;;;;;;;;;;;;;;;;2205144;60;25770;-72
2021/12/05 08:21:56;;;;;;;;;;;;;;;;;;2202080;59;23199;-72
2021/12/05 08:24:32;;;;;;;;;;;;;;;;;;2204645;58;19595;-72
2021/12/05 08:27:09;;;;;;;;;;;;;;;;;;2205867;64;18297;-72
2021/12/05 08:29:50;;;;;;;;;;;;;;;;;;2206127;59;14709;-72
2021/12/05 08:32:33;;;;;;;;;;;;;;;;;;2205447;66;16249;-72
2021/12/05 08:35:23;;;;;;;;;;;;;;;;;;2205779;63;30141;-72
2021/12/05 09:21:24;;;;;;;;;;;;;;;;;;2212249;59;22854;-71
2021/12/05 09:24:09;;;;;;;;;;;;;;;;;;2212321;59;31197;-71
2021/12/05 09:27:01;;;;;;;;;;;;;;;;;;2211257;59;22015;-71
2021/12/05 09:30:07;;;;;;;;;;;;;;;;;;2212292;59;30257;-72
2021/12/05 09:38:52;;;;;;;;;;;;;;;;;;2213615;59;14182;-71
2021/12/05 10:02:11;;;;;;;;;;;;;;;;;;2213178;59;42676;-70
2021/12/05 10:07:31;;;;;;;;;;;;;;;;;;2212716;59;30629;-71
2021/12/05 10:10:19;;;;;;;;;;;;;;;;;;2215998;59;17311;-71
2021/12/05 10:13:05;;;;;;;;;;;;;;;;;;2213447;59;17196;-70
2021/12/05 10:15:51;;;;;;;;;;;;;;;;;;2212146;59;37465;-71
2021/12/05 10:38:20;;;;;;;;;;;;;;;;;;2211646;59;16591;-71
2021/12/05 10:41:01;;;;;;;;;;;;;;;;;;2212435;59;20972;-71
2021/12/05 10:43:46;;;;;;;;;;;;;;;;;;2209164;59;28832;-71
2021/12/05 10:46:35;;;;;;;;;;;;;;;;;;2212438;59;20810;-71
2021/12/05 10:49:09;;;;;;;;;;;;;;;;;;2208325;59;27593;-71
2021/12/05 10:51:43;;;;;;;;;;;;;;;;;;2209809;59;25959;-71
2021/12/05 10:54:18;;;;;;;;;;;;;;;;;;2210262;59;32943;-71
2021/12/05 10:56:54;;;;;;;;;;;;;;;;;;2207992;59;48803;-71
2021/12/05 10:59:36;;;;;;;;;;;;;;;;;;2208951;59;22737;-71
2021/12/05 11:02:11;;;;;;;;;;;;;;;;;;2209423;59;23209;-71
2021/12/05 11:04:46;;;;;;;;;;;;;;;;;;2210717;59;30571;-71
2021/12/05 11:07:21;;;;;;;;;;;;;;;;;;2209745;59;18592;-70
2021/12/05 11:09:57;;;;;;;;;;;;;;;;;;2210096;59;17238;-71
2021/12/05 11:12:33;;;;;;;;;;;;;;;;;;2210523;59;26186;-71
2021/12/05 11:15:11;;;;;;;;;;;;;;;;;;2210266;59;54008;-71
2021/12/05 11:17:47;;;;;;;;;;;;;;;;;;2211401;59;26612;-70
2021/12/05 11:20:29;;;;;;;;;;;;;;;;;;2209798;59;20787;-71
2021/12/05 11:23:03;;;;;;;;;;;;;;;;;;2210259;59;48049;-71
2021/12/05 11:25:40;;;;;;;;;;;;;;;;;;2208434;59;16170;-71
2021/12/05 11:28:24;;;;;;;;;;;;;;;;;;2210904;59;41394;-70
2021/12/05 11:31:00;;;;;;;;;;;;;;;;;;2210495;59;36019;-71
2021/12/05 11:33:45;;;;;;;;;;;;;;;;;;2210366;59;28003;-71
2021/12/05 11:36:24;;;;;;;;;;;;;;;;;;2209411;59;32872;-70
2021/12/05 11:38:57;;;;;;;;;;;;;;;;;;2210963;59;25528;-71
2021/12/05 11:41:30;;;;;;;;;;;;;;;;;;2209191;59;18517;-71
2021/12/05 11:44:03;;;;;;;;;;;;;;;;;;2210431;59;27289;-71
2021/12/05 11:46:44;;;;;;;;;;;;;;;;;;2210227;59;19481;-71
2021/12/05 11:49:21;;;;;;;;;;;;;;;;;;2208301;59;26071;-70
2021/12/05 11:51:56;;;;;;;;;;;;;;;;;;2211183;59;17786;-70
2021/12/05 11:54:30;;;;;;;;;;;;;;;;;;2210423;59;17741;-71
2021/12/05 11:57:06;;;;;;;;;;;;;;;;;;2207874;59;19619;-71
2021/12/05 11:59:41;;;;;;;;;;;;;;;;;;2209062;59;33665;-71
2021/12/05 12:02:18;;;;;;;;;;;;;;;;;;2210129;59;41837;-71
2021/12/05 12:04:54;;;;;;;;;;;;;;;;;;2209553;59;17031;-71
2021/12/05 12:07:34;;;;;;;;;;;;;;;;;;2207665;59;25099;-71
2021/12/05 12:10:10;;;;;;;;;;;;;;;;;;2210871;67;27159;-71
2021/12/05 12:12:45;;;;;;;;;;;;;;;;;;2208817;59;15060;-71
2021/12/05 12:15:18;;;;;;;;;;;;;;;;;;2210578;63;28339;-70
2021/12/05 12:17:55;;;;;;;;;;;;;;;;;;2209787;59;16694;-71
2021/12/05 12:20:30;;;;;;;;;;;;;;;;;;2209965;59;27211;-71
2021/12/05 12:23:03;;;;;;;;;;;;;;;;;;2209229;59;15975;-72
2021/12/05 12:25:37;;;;;;;;;;;;;;;;;;2211014;59;14991;-71
2021/12/05 12:28:11;;;;;;;;;;;;;;;;;;2209005;59;14587;-71
2021/12/05 12:30:45;;;;;;;;;;;;;;;;;;2208089;59;21530;-71
2021/12/05 12:33:23;;;;;;;;;;;;;;;;;;2209789;59;19524;-71
2021/12/05 12:35:56;;;;;;;;;;;;;;;;;;2210182;59;21320;-71
2021/12/05 12:38:36;;;;;;;;;;;;;;;;;;2209418;67;17101;-70
2021/12/05 12:41:20;;;;;;;;;;;;;;;;;;2208085;59;17180;-70
2021/12/05 12:43:55;;;;;;;;;;;;;;;;;;2210455;63;17236;-70
2021/12/05 12:46:30;;;;;;;;;;;;;;;;;;2209580;59;21779;-71
2021/12/05 12:49:25;;;;;;;;;;;;;;;;;;2208597;67;33070;-72
2021/12/05 12:52:02;;;;;;;;;;;;;;;;;;2210526;59;16527;-71
2021/12/05 12:54:36;;;;;;;;;;;;;;;;;;2210723;59;17103;-71
2021/12/05 12:57:13;;;;;;;;;;;;;;;;;;2208495;59;32258;-71
2021/12/05 12:59:50;;;;;;;;;;;;;;;;;;2209522;59;24183;-71
2021/12/05 13:02:37;;;;;;;;;;;;;;;;;;2211223;59;31957;-71
2021/12/05 13:05:34;;;;;;;;;;;;;;;;;;2209670;59;36364;-70
2021/12/05 13:11:00;;;;;;;;;;;;;;;;;;2210037;67;17770;-71
2021/12/05 13:13:36;;;;;;;;;;;;;;;;;;2208973;59;16924;-71
2021/12/05 13:16:15;;;;;;;;;;;;;;;;;;2209675;59;32586;-71
2021/12/05 13:18:49;;;;;;;;;;;;;;;;;;2207996;59;25420;-70
2021/12/05 13:21:36;;;;;;;;;;;;;;;;;;2208946;59;18083;-70
2021/12/05 13:24:17;;;;;;;;;;;;;;;;;;2210574;59;21987;-70
2021/12/05 13:26:51;;;;;;;;;;;;;;;;;;2210059;59;23819;-71
2021/12/05 13:29:25;;;;;;;;;;;;;;;;;;2210107;59;18733;-71
2021/12/05 13:32:05;;;;;;;;;;;;;;;;;;2210970;59;24605;-71
2021/12/05 13:34:46;;;;;;;;;;;;;;;;;;2209290;59;35169;-71
2021/12/05 13:37:37;;;;;;;;;;;;;;;;;;2208017;59;21800;-71
2021/12/05 13:40:22;;;;;;;;;;;;;;;;;;2210161;59;19042;-70
2021/12/05 13:42:56;;;;;;;;;;;;;;;;;;2210197;59;31604;-71
2021/12/05 13:45:36;;;;;;;;;;;;;;;;;;2209289;59;27490;-71
2021/12/05 13:48:15;;;;;;;;;;;;;;;;;;2210720;59;25064;-71
2021/12/05 13:50:56;;;;;;;;;;;;;;;;;;2211746;63;16082;-72
2021/12/05 13:53:34;;;;;;;;;;;;;;;;;;2209155;59;23402;-72
2021/12/05 13:56:24;;;;;;;;;;;;;;;;;;2213253;59;17153;-71
2021/12/05 13:59:05;;;;;;;;;;;;;;;;;;2209479;59;21346;-71
2021/12/05 14:01:46;;;;;;;;;;;;;;;;;;2207909;59;19553;-72
2021/12/05 14:04:27;;;;;;;;;;;;;;;;;;2209851;59;22384;-72
2021/12/05 14:07:04;;;;;;;;;;;;;;;;;;2210909;67;19829;-71
2021/12/05 14:09:38;;;;;;;;;;;;;;;;;;2209461;67;16899;-71
2021/12/05 14:12:13;;;;;;;;;;;;;;;;;;2211060;59;21358;-70
2021/12/05 14:14:50;;;;;;;;;;;;;;;;;;2210584;67;24588;-71
2021/12/05 14:17:25;;;;;;;;;;;;;;;;;;2209131;59;27045;-72
2021/12/05 14:19:59;;;;;;;;;;;;;;;;;;2211756;59;23027;-71
2021/12/05 14:22:33;;;;;;;;;;;;;;;;;;2209136;59;18143;-71
2021/12/05 14:25:08;;;;;;;;;;;;;;;;;;2209738;59;18630;-71
2021/12/05 14:27:43;;;;;;;;;;;;;;;;;;2209727;59;22509;-71
2021/12/05 14:30:21;;;;;;;;;;;;;;;;;;2211684;59;16363;-71
2021/12/05 14:32:58;;;;;;;;;;;;;;;;;;2211176;64;16564;-71
2021/12/05 14:35:33;;;;;;;;;;;;;;;;;;2209065;59;23851;-71
2021/12/05 14:38:07;;;;;;;;;;;;;;;;;;2210350;63;15020;-71
2021/12/05 14:40:40;;;;;;;;;;;;;;;;;;2209983;59;14700;-71
2021/12/05 14:43:14;;;;;;;;;;;;;;;;;;2210219;67;18051;-71
2021/12/05 14:48:32;;;;;;;;;;;;;;;;;;2213624;59;15122;-72
2021/12/05 14:51:06;;;;;;;;;;;;;;;;;;2214278;59;28756;-72
2021/12/05 14:53:42;;;;;;;;;;;;;;;;;;2216548;58;15250;-72
2021/12/05 14:56:15;;;;;;;;;;;;;;;;;;2216078;58;20586;-72
2021/12/05 14:58:48;;;;;;;;;;;;;;;;;;2212363;63;19367;-72
2021/12/05 15:01:28;;;;;;;;;;;;;;;;;;2209476;59;25828;-72
2021/12/05 15:04:06;;;;;;;;;;;;;;;;;;2211976;59;17248;-72
2021/12/05 15:06:42;;;;;;;;;;;;;;;;;;2213568;59;17660;-72
2021/12/05 15:09:20;;;;;;;;;;;;;;;;;;2211304;59;23594;-72
2021/12/05 15:11:55;;;;;;;;;;;;;;;;;;2213100;59;24087;-72
2021/12/05 15:14:28;;;;;;;;;;;;;;;;;;2214024;66;23710;-72
2021/12/05 15:17:04;;;;;;;;;;;;;;;;;;2212752;67;17092;-72
2021/12/05 15:19:42;;;;;;;;;;;;;;;;;;2212433;67;15185;-72
2021/12/05 15:22:15;;;;;;;;;;;;;;;;;;2212767;59;16635;-72
2021/12/05 15:24:52;;;;;;;;;;;;;;;;;;2212662;59;21851;-72
2021/12/05 15:27:26;;;;;;;;;;;;;;;;;;2211383;59;20107;-72
2021/12/05 15:30:01;;;;;;;;;;;;;;;;;;2211654;59;15420;-72
2021/12/05 15:32:34;;;;;;;;;;;;;;;;;;2213189;66;19885;-72
2021/12/05 15:35:13;;;;;;;;;;;;;;;;;;2212296;58;17794;-71
2021/12/05 15:37:50;;;;;;;;;;;;;;;;;;2213462;59;17162;-72
2021/12/05 15:40:24;;;;;;;;;;;;;;;;;;2212198;59;22979;-72
2021/12/05 15:43:00;;;;;;;;;;;;;;;;;;2211165;59;13902;-72
2021/12/05 15:45:34;;;;;;;;;;;;;;;;;;2212353;66;16435;-72
2021/12/05 15:48:08;;;;;;;;;;;;;;;;;;2212826;59;15159;-72
2021/12/05 15:50:43;;;;;;;;;;;;;;;;;;2212610;59;16041;-72
2021/12/05 15:53:17;;;;;;;;;;;;;;;;;;2211210;59;23978;-72
2021/12/05 15:55:52;;;;;;;;;;;;;;;;;;2210907;59;27844;-72
2021/12/05 15:58:31;;;;;;;;;;;;;;;;;;2211855;59;20823;-72
2021/12/05 16:01:06;;;;;;;;;;;;;;;;;;2210678;59;21541;-72
2021/12/05 16:03:43;;;;;;;;;;;;;;;;;;2211602;59;16161;-72
2021/12/05 16:06:20;;;;;;;;;;;;;;;;;;2211014;59;20070;-72
2021/12/05 16:08:54;;;;;;;;;;;;;;;;;;2211090;59;23719;-72
2021/12/05 16:11:27;;;;;;;;;;;;;;;;;;2211876;59;27186;-72
2021/12/05 16:14:00;;;;;;;;;;;;;;;;;;2213309;59;16362;-72
2021/12/05 16:16:33;;;;;;;;;;;;;;;;;;2211871;59;19526;-72
2021/12/05 16:19:12;;;;;;;;;;;;;;;;;;2212501;59;24120;-72
2021/12/05 16:21:48;;;;;;;;;;;;;;;;;;2212468;59;14586;-72
2021/12/05 16:24:23;;;;;;;;;;;;;;;;;;2211808;59;18121;-72
2021/12/05 16:26:56;;;;;;;;;;;;;;;;;;2212280;66;19061;-72
2021/12/05 16:29:29;;;;;;;;;;;;;;;;;;2210654;59;26582;-72
2021/12/05 16:32:02;;;;;;;;;;;;;;;;;;2211892;59;18671;-72
2021/12/05 16:34:42;;;;;;;;;;;;;;;;;;2211192;59;17410;-71
2021/12/05 16:37:18;;;;;;;;;;;;;;;;;;2211514;59;21367;-72
2021/12/05 16:39:57;;;;;;;;;;;;;;;;;;2213302;66;16929;-72
2021/12/05 16:42:35;;;;;;;;;;;;;;;;;;2212982;59;18494;-72
2021/12/05 16:45:08;;;;;;;;;;;;;;;;;;2210986;67;23634;-72
2021/12/05 16:47:41;;;;;;;;;;;;;;;;;;2214124;58;22238;-71
2021/12/05 16:50:16;;;;;;;;;;;;;;;;;;2213156;59;15314;-71
2021/12/05 16:52:52;;;;;;;;;;;;;;;;;;2212642;59;13926;-72
2021/12/05 16:55:29;;;;;;;;;;;;;;;;;;2211474;59;19268;-71
2021/12/05 16:58:09;;;;;;;;;;;;;;;;;;2210614;59;14391;-72
2021/12/05 17:00:43;;;;;;;;;;;;;;;;;;2212154;67;20924;-71
2021/12/05 17:03:19;;;;;;;;;;;;;;;;;;2209612;59;18166;-72
2021/12/05 17:05:54;;;;;;;;;;;;;;;;;;2212741;59;16710;-71
2021/12/05 17:08:31;;;;;;;;;;;;;;;;;;2214687;59;13066;-71
2021/12/05 17:11:06;;;;;;;;;;;;;;;;;;2212766;63;18839;-71
2021/12/05 17:13:41;;;;;;;;;;;;;;;;;;2212851;59;15821;-71
2021/12/05 17:16:17;;;;;;;;;;;;;;;;;;2210611;59;28436;-71
2021/12/05 17:18:58;;;;;;;;;;;;;;;;;;2210438;59;15810;-71
2021/12/05 17:21:33;;;;;;;;;;;;;;;;;;2209802;59;16024;-71
2021/12/05 17:24:12;;;;;;;;;;;;;;;;;;2212384;59;16169;-72
2021/12/05 17:26:46;;;;;;;;;;;;;;;;;;2211750;59;13073;-71
2021/12/05 17:29:21;;;;;;;;;;;;;;;;;;2210405;59;20773;-72
2021/12/05 17:31:55;;;;;;;;;;;;;;;;;;2212145;59;24734;-71
2021/12/05 17:34:31;;;;;;;;;;;;;;;;;;2211912;59;21877;-72
2021/12/05 17:37:09;;;;;;;;;;;;;;;;;;2211318;59;20846;-71
2021/12/05 17:39:46;;;;;;;;;;;;;;;;;;2212768;63;20023;-72
2021/12/05 17:42:21;;;;;;;;;;;;;;;;;;2212636;59;18358;-71
2021/12/05 17:44:56;;;;;;;;;;;;;;;;;;2210720;66;22661;-71
2021/12/05 17:47:30;;;;;;;;;;;;;;;;;;2212114;59;23482;-71
2021/12/05 17:50:05;;;;;;;;;;;;;;;;;;2213146;59;17556;-71
2021/12/05 17:52:39;;;;;;;;;;;;;;;;;;2212110;59;18300;-71
2021/12/05 17:55:20;;;;;;;;;;;;;;;;;;2212564;59;17885;-71
2021/12/05 17:57:59;;;;;;;;;;;;;;;;;;2212139;59;15351;-71
2021/12/05 18:00:43;;;;;;;;;;;;;;;;;;2210432;66;19051;-71
2021/12/05 18:03:15;;;;;;;;;;;;;;;;;;2210465;58;26662;-72
2021/12/05 18:05:49;;;;;;;;;;;;;;;;;;2213374;59;20854;-71
2021/12/05 18:08:25;;;;;;;;;;;;;;;;;;2212093;59;19979;-71
2021/12/05 18:11:07;;;;;;;;;;;;;;;;;;2213727;66;17806;-71
2021/12/05 18:13:43;;;;;;;;;;;;;;;;;;2212845;59;23642;-72
2021/12/05 18:16:23;;;;;;;;;;;;;;;;;;2212960;63;18845;-71
2021/12/05 18:18:58;;;;;;;;;;;;;;;;;;2212256;59;19913;-71
2021/12/05 18:21:34;;;;;;;;;;;;;;;;;;2211747;63;29212;-72
2021/12/05 18:24:08;;;;;;;;;;;;;;;;;;2213764;58;16863;-71
2021/12/05 18:26:45;;;;;;;;;;;;;;;;;;2212780;59;17583;-71
2021/12/05 18:29:19;;;;;;;;;;;;;;;;;;2211832;58;22601;-71
2021/12/05 18:31:54;;;;;;;;;;;;;;;;;;2212942;58;20706;-71
2021/12/05 18:34:29;;;;;;;;;;;;;;;;;;2213460;63;17332;-71
2021/12/05 18:37:03;;;;;;;;;;;;;;;;;;2212213;60;16659;-71
2021/12/05 18:39:39;;;;;;;;;;;;;;;;;;2212887;66;17034;-71
2021/12/05 18:42:17;;;;;;;;;;;;;;;;;;2213791;59;22510;-71
2021/12/05 18:44:56;;;;;;;;;;;;;;;;;;2211092;59;14107;-72
2021/12/05 18:47:29;;;;;;;;;;;;;;;;;;2210316;63;15077;-71
2021/12/05 18:50:03;;;;;;;;;;;;;;;;;;2211259;66;21205;-71
2021/12/05 18:52:36;;;;;;;;;;;;;;;;;;2212077;59;18289;-72
2021/12/05 18:55:12;;;;;;;;;;;;;;;;;;2211444;59;28426;-72
2021/12/05 18:57:48;;;;;;;;;;;;;;;;;;2211693;59;17303;-72
2021/12/05 19:00:28;;;;;;;;;;;;;;;;;;2212162;59;15079;-72
2021/12/05 19:05:54;;;;;;;;;;;;;;;;;;2210493;63;24301;-72
2021/12/05 19:08:40;;;;;;;;;;;;;;;;;;2212314;59;15320;-72
2021/12/05 19:14:05;;;;;;;;;;;;;;;;;;2212042;66;19604;-72
2021/12/05 19:16:38;;;;;;;;;;;;;;;;;;2211550;59;22514;-72
2021/12/05 19:19:11;;;;;;;;;;;;;;;;;;2212058;59;17294;-72
2021/12/05 19:21:46;;;;;;;;;;;;;;;;;;2212038;59;15491;-72
2021/12/05 19:24:20;;;;;;;;;;;;;;;;;;2211931;58;17661;-71
2021/12/05 19:26:57;;;;;;;;;;;;;;;;;;2211123;59;31273;-72
2021/12/05 19:29:34;;;;;;;;;;;;;;;;;;2211715;59;24431;-72
2021/12/05 19:32:08;;;;;;;;;;;;;;;;;;2212288;59;20169;-72
2021/12/05 19:34:41;;;;;;;;;;;;;;;;;;2211422;59;21444;-72
2021/12/05 19:37:14;;;;;;;;;;;;;;;;;;2211187;59;20270;-72
2021/12/05 19:39:47;;;;;;;;;;;;;;;;;;2212704;59;21708;-72
2021/12/05 19:42:23;;;;;;;;;;;;;;;;;;2212560;66;23506;-72
2021/12/05 19:44:59;;;;;;;;;;;;;;;;;;2212722;63;19918;-72
2021/12/05 19:47:32;;;;;;;;;;;;;;;;;;2211457;59;16240;-72
2021/12/05 19:50:05;;;;;;;;;;;;;;;;;;2211177;59;25776;-72
2021/12/05 19:52:39;;;;;;;;;;;;;;;;;;2211787;59;14902;-72
2021/12/05 19:55:12;;;;;;;;;;;;;;;;;;2211702;59;23030;-72
2021/12/05 19:57:45;;;;;;;;;;;;;;;;;;2212565;59;24984;-71
2021/12/05 20:00:24;;;;;;;;;;;;;;;;;;2212904;66;15172;-72
2021/12/05 20:02:57;;;;;;;;;;;;;;;;;;2211627;59;20875;-72
2021/12/05 20:05:31;;;;;;;;;;;;;;;;;;2210642;63;20486;-72
2021/12/05 20:08:06;;;;;;;;;;;;;;;;;;2211542;59;21891;-72
2021/12/05 20:10:41;;;;;;;;;;;;;;;;;;2213584;59;18553;-72
2021/12/05 20:13:14;;;;;;;;;;;;;;;;;;2210241;59;25347;-71
2021/12/05 20:15:51;;;;;;;;;;;;;;;;;;2211417;59;17308;-71
2021/12/05 20:18:24;;;;;;;;;;;;;;;;;;2211536;59;20293;-72
2021/12/05 20:21:01;;;;;;;;;;;;;;;;;;2211745;59;17186;-72
2021/12/05 20:23:34;;;;;;;;;;;;;;;;;;2211470;66;21443;-72
2021/12/05 20:26:08;;;;;;;;;;;;;;;;;;2212787;59;14988;-72
2021/12/05 20:28:41;;;;;;;;;;;;;;;;;;2211807;67;17015;-72
2021/12/05 20:31:17;;;;;;;;;;;;;;;;;;2211377;59;28296;-72
2021/12/05 20:33:50;;;;;;;;;;;;;;;;;;2211459;59;18628;-72
2021/12/05 20:36:24;;;;;;;;;;;;;;;;;;2210452;59;20528;-72
2021/12/05 20:38:58;;;;;;;;;;;;;;;;;;2212561;66;21326;-72
2021/12/05 20:41:31;;;;;;;;;;;;;;;;;;2211541;59;21374;-72
2021/12/05 20:44:04;;;;;;;;;;;;;;;;;;2212517;59;19068;-72
2021/12/05 20:46:41;;;;;;;;;;;;;;;;;;2214460;53;26755;-72
2021/12/05 20:49:15;;;;;;;;;;;;;;;;;;2205869;59;36515;-72
2021/12/05 20:51:48;;;;;;;;;;;;;;;;;;2207724;59;22618;-72
2021/12/05 20:54:22;;;;;;;;;;;;;;;;;;2206683;59;55171;-71
2021/12/05 20:56:55;;;;;;;;;;;;;;;;;;2209453;59;18085;-72
2021/12/05 20:59:28;;;;;;;;;;;;;;;;;;2209840;59;26225;-71
2021/12/05 21:02:04;;;;;;;;;;;;;;;;;;2210640;59;23482;-72
2021/12/05 21:04:37;;;;;;;;;;;;;;;;;;2209408;59;16837;-71
2021/12/05 21:07:14;;;;;;;;;;;;;;;;;;2208681;59;24398;-72
2021/12/05 21:09:47;;;;;;;;;;;;;;;;;;2210243;67;26582;-71
2021/12/05 21:12:21;;;;;;;;;;;;;;;;;;2210284;59;23404;-72
2021/12/05 21:14:54;;;;;;;;;;;;;;;;;;2210219;67;19853;-72
2021/12/05 21:17:30;;;;;;;;;;;;;;;;;;2210379;59;27089;-71
2021/12/05 21:20:04;;;;;;;;;;;;;;;;;;2209590;59;29266;-72
2021/12/05 21:22:37;;;;;;;;;;;;;;;;;;2209411;59;20083;-71
2021/12/05 21:25:11;;;;;;;;;;;;;;;;;;2209156;59;39554;-71
2021/12/05 21:27:44;;;;;;;;;;;;;;;;;;2210764;59;30419;-71
2021/12/05 21:30:18;;;;;;;;;;;;;;;;;;2210585;59;16755;-72
2021/12/05 21:32:55;;;;;;;;;;;;;;;;;;2210256;59;21718;-72
2021/12/05 21:35:30;;;;;;;;;;;;;;;;;;2209130;59;34502;-72
2021/12/05 21:38:03;;;;;;;;;;;;;;;;;;2211210;59;30647;-71
2021/12/05 21:40:38;;;;;;;;;;;;;;;;;;2210215;67;23720;-71
2021/12/05 21:43:12;;;;;;;;;;;;;;;;;;2210156;59;21468;-71
2021/12/05 21:45:46;;;;;;;;;;;;;;;;;;2212127;63;16692;-71
2021/12/05 21:48:22;;;;;;;;;;;;;;;;;;2210411;59;24403;-71
2021/12/05 21:50:55;;;;;;;;;;;;;;;;;;2210801;59;25836;-71